Map

Track Data

SID SEASON NUMBER BASIN SUBBASIN NAME ISO_TIME NATURE LAT LON WMO_WIND WMO_PRES WMO_AGENCY TRACK_TYPE DIST2LAND LANDFALL IFLAG USA_AGENCY USA_ATCF_ID USA_LAT USA_LON USA_RECORD USA_STATUS USA_WIND USA_PRES USA_SSHS USA_R34_NE USA_R34_SE USA_R34_SW USA_R34_NW USA_R50_NE USA_R50_SE USA_R50_SW USA_R50_NW USA_R64_NE USA_R64_SE USA_R64_SW USA_R64_NW USA_POCI USA_ROCI USA_RMW USA_EYE TOKYO_LAT TOKYO_LON TOKYO_GRADE TOKYO_WIND TOKYO_PRES TOKYO_R50_DIR TOKYO_R50_LONG TOKYO_R50_SHORT TOKYO_R30_DIR TOKYO_R30_LONG TOKYO_R30_SHORT TOKYO_LAND CMA_LAT CMA_LON CMA_CAT CMA_WIND CMA_PRES HKO_LAT HKO_LON HKO_CAT HKO_WIND HKO_PRES NEWDELHI_LAT NEWDELHI_LON NEWDELHI_GRADE NEWDELHI_WIND NEWDELHI_PRES NEWDELHI_CI NEWDELHI_DP NEWDELHI_POCI REUNION_LAT REUNION_LON REUNION_TYPE REUNION_WIND REUNION_PRES REUNION_TNUM REUNION_CI REUNION_RMW REUNION_R34_NE REUNION_R34_SE REUNION_R34_SW REUNION_R34_NW REUNION_R50_NE REUNION_R50_SE REUNION_R50_SW REUNION_R50_NW REUNION_R64_NE REUNION_R64_SE REUNION_R64_SW REUNION_R64_NW BOM_LAT BOM_LON BOM_TYPE BOM_WIND BOM_PRES BOM_TNUM BOM_CI BOM_RMW BOM_R34_NE BOM_R34_SE BOM_R34_SW BOM_R34_NW BOM_R50_NE BOM_R50_SE BOM_R50_SW BOM_R50_NW BOM_R64_NE BOM_R64_SE BOM_R64_SW BOM_R64_NW BOM_ROCI BOM_POCI BOM_EYE BOM_POS_METHOD BOM_PRES_METHOD NADI_LAT NADI_LON NADI_CAT NADI_WIND NADI_PRES WELLINGTON_LAT WELLINGTON_LON WELLINGTON_WIND WELLINGTON_PRES DS824_LAT DS824_LON DS824_STAGE DS824_WIND DS824_PRES TD9636_LAT TD9636_LON TD9636_STAGE TD9636_WIND TD9636_PRES TD9635_LAT TD9635_LON TD9635_WIND TD9635_PRES TD9635_ROCI NEUMANN_LAT NEUMANN_LON NEUMANN_CLASS NEUMANN_WIND NEUMANN_PRES MLC_LAT MLC_LON MLC_CLASS MLC_WIND MLC_PRES USA_GUST BOM_GUST BOM_GUST_PER REUNION_GUST REUNION_GUST_PER USA_SEAHGT USA_SEARAD_NE USA_SEARAD_SE USA_SEARAD_SW USA_SEARAD_NW STORM_SPEED STORM_DIR
1996057S12074 1996 16 SI MM FLOSSY 1996-02-25 18:00:00 TS -11.6000 73.6000 20 1003 reunion main 1947 1922 _____O________ -1 -11.6000 73.6000 2 20 1003 1.50000 1.50000 4 250
1996057S12074 1996 16 SI MM FLOSSY 1996-02-25 21:00:00 TS -11.6600 73.4275 main 1922 1922 _____P________ -1 -11.6600 73.4275 2 22 1001 2 169
1996057S12074 1996 16 SI MM FLOSSY 1996-02-26 00:00:00 TS -11.8200 73.6400 25 1000 reunion main 1935 1935 O____O______O_ jtwc_sh SH171996 -12.0000 74.0000 20 -1 -11.7000 73.4000 2 25 1000 2.00000 2.00000 -12.0000 74.0000 TC 20 3 125
1996057S12074 1996 16 SI MM FLOSSY 1996-02-26 03:00:00 TS -11.8238 73.6712 main 1945 1935 P____P______P_ SH171996 -11.9400 73.7500 20 -1 -11.7076 73.5925 2 26 999 -11.9400 73.7500 TC 20 0 0
1996057S12074 1996 16 SI MM FLOSSY 1996-02-26 06:00:00 TS -11.8200 73.6200 28 998 reunion main 1935 1916 O____O______O_ jtwc_sh SH171996 -11.9000 73.5000 20 -1 -11.7000 73.8000 2 28 998 2.50000 2.50000 -11.9000 73.5000 TC 20 2 269
1996057S12074 1996 16 SI MM FLOSSY 1996-02-26 09:00:00 TS -11.8283 73.4317 main 1916 1898 P____P______P_ SH171996 -11.8925 73.2500 22 -1 -11.7000 73.7950 2 28 998 -11.8925 73.2500 TC 22 4 268
1996057S12074 1996 16 SI MM FLOSSY 1996-02-26 12:00:00 TS -11.8333 73.2333 28 998 reunion main 1898 1889 O____O______O_ jtwc_sh SH171996 -11.9000 73.0000 25 -1 -11.7000 73.7000 2 28 998 2.00000 2.50000 -11.9000 73.0000 TC 25 4 272
1996057S12074 1996 16 SI MM FLOSSY 1996-02-26 15:00:00 TS -11.8158 73.0433 main 1879 1861 P____P______P_ SH171996 -11.8850 72.7500 25 -1 -11.6775 73.6299 2 29 996 -11.8850 72.7500 TC 25 4 270
1996057S12074 1996 16 SI MM FLOSSY 1996-02-26 18:00:00 TS -11.8333 72.8333 30 995 reunion main 1861 1836 O____O______O_ jtwc_sh SH171996 -11.9000 72.5000 25 -1 -11.7000 73.5000 2 30 995 2.50000 2.50000 -11.9000 72.5000 TC 25 4 258
1996057S12074 1996 16 SI MM FLOSSY 1996-02-26 21:00:00 TS -11.9099 72.6082 main 1836 1806 P____P______P_ SH171996 -11.9700 72.2575 27 -1 -11.7899 73.3098 2 30 995 -11.9700 72.2575 TC 27 5 245
1996057S12074 1996 16 SI MM FLOSSY 1996-02-27 00:00:00 TS -12.0667 72.3333 30 995 reunion main 1797 1757 O____O______O_ jtwc_sh SH171996 -12.1000 72.0000 30 -1 -12.0000 73.0000 2 30 995 2.50000 2.50000 -12.1000 72.0000 TC 30 7 238
1996057S12074 1996 16 SI MM FLOSSY 1996-02-27 03:00:00 TS -12.2934 71.9866 main 1757 1703 P____P______P_ SH171996 -12.2625 71.7149 32 -1 -12.3551 72.5301 2 32 993 -12.2625 71.7149 TC 32 9 233
1996057S12074 1996 16 SI MM FLOSSY 1996-02-27 06:00:00 TS -12.6000 71.6000 35 992 reunion main 1703 1657 O____O______O_ jtwc_sh SH171996 -12.5000 71.4000 35 0 -12.8000 72.0000 3 35 992 3.00000 3.00000 -12.5000 71.4000 TC 35 10 228
1996057S12074 1996 16 SI MM FLOSSY 1996-02-27 09:00:00 TS -12.9682 71.2291 main 1642 1597 P____P______P_ SH171996 -12.8199 71.0724 37 0 -13.2649 71.5425 3 37 990 -12.8199 71.0724 TC 37 11 224
1996057S12074 1996 16 SI MM FLOSSY 1996-02-27 12:00:00 TS -13.3667 70.8333 40 988 reunion main 1582 1528 O____O______O_ jtwc_sh SH171996 -13.2000 70.7000 40 0 -13.7000 71.1000 3 40 988 3.00000 3.00000 -13.2000 70.7000 TC 40 11 227
1996057S12074 1996 16 SI MM FLOSSY 1996-02-27 15:00:00 TS -13.7433 70.3858 main 1528 1468 P____P______P_ SH171996 -13.6001 70.2501 47 0 -14.0299 70.6573 3 42 986 -13.6001 70.2501 TC 47 11 230
1996057S12074 1996 16 SI MM FLOSSY 1996-02-27 18:00:00 TS -14.1000 69.9333 45 985 reunion main 1459 1415 O____O______O_ jtwc_sh SH171996 -14.0000 69.8000 55 0 -14.3000 70.2000 3 45 985 3.50000 3.50000 -14.0000 69.8000 TC 55 11 231
1996057S12074 1996 16 SI MM FLOSSY 1996-02-27 21:00:00 TS -14.4140 69.5430 main 1405 1361 P____P______P_ SH171996 -14.3498 69.4571 62 0 -14.5424 69.7147 3 47 982 -14.3498 69.4571 TC 62 10 231
1996057S12074 1996 16 SI MM FLOSSY 1996-02-28 00:00:00 TS -14.7333 69.1333 50 980 reunion main 1351 1292 O____O______O_ jtwc_sh SH171996 -14.7000 69.1000 70 1 -14.8000 69.2000 3 50 980 4.00000 4.00000 -14.7000 69.1000 TC 70 11 232
1996057S12074 1996 16 SI MM FLOSSY 1996-02-28 03:00:00 TS -15.1067 68.6267 main 1283 1214 P____P______P_ SH171996 -15.0925 68.6225 77 1 -15.1351 68.6351 3 55 975 -15.0925 68.6225 TC 77 13 232
1996057S12074 1996 16 SI MM FLOSSY 1996-02-28 06:00:00 TS -15.5000 68.1000 60 970 reunion main 1214 1156 O____O______O_ jtwc_sh SH171996 -15.5000 68.1000 85 2 -15.5000 68.1000 3 60 970 4.50000 4.50000 -15.5000 68.1000 TC 85 12 231
1996057S12074 1996 16 SI MM FLOSSY 1996-02-28 09:00:00 TS -15.8931 67.6332 main 1146 1093 P____P______P_ SH171996 -15.9149 67.5999 92 2 -15.8496 67.6996 3 65 962 -15.9149 67.5999 TC 92 12 229
1996057S12074 1996 16 SI MM FLOSSY 1996-02-28 12:00:00 TS -16.2667 67.1667 70 955 reunion main 1088 1025 O____O______O_ jtwc_sh SH171996 -16.3000 67.1000 100 3 -16.2000 67.3000 4 70 955 5.00000 5.00000 -16.3000 67.1000 TC 100 12 233
1996057S12074 1996 16 SI MM FLOSSY 1996-02-28 15:00:00 TS -16.5933 66.6573 main 1025 963 P____P______P_ SH171996 -16.6149 66.5997 107 3 -16.5500 66.7724 4 75 950 -16.6149 66.5997 TC 107 12 237
1996057S12074 1996 16 SI MM FLOSSY 1996-02-28 18:00:00 TS -16.9000 66.1333 80 945 reunion main 953 891 O____O______O_ jtwc_sh SH171996 -16.9000 66.1000 115 4 -16.9000 66.2000 4 80 945 5.50000 5.50000 -16.9000 66.1000 TC 115 12 238
1996057S12074 1996 16 SI MM FLOSSY 1996-02-28 21:00:00 TS -17.2116 65.6140 main 891 829 P____P______P_ SH171996 -17.1924 65.5998 115 4 -17.2499 65.6423 4 80 945 -17.1924 65.5998 TC 115 12 237
1996057S12074 1996 16 SI MM FLOSSY 1996-02-29 00:00:00 TS -17.5333 65.1000 80 945 reunion main 829 763 O____O______O_ jtwc_sh SH171996 -17.5000 65.1000 115 4 -17.6000 65.1000 4 80 945 5.00000 5.50000 -17.5000 65.1000 TC 115 12 235
1996057S12074 1996 16 SI MM FLOSSY 1996-02-29 03:00:00 TS -17.8832 64.5974 main 763 701 P____P______P_ SH171996 -17.8499 64.5999 112 3 -17.9498 64.5923 4 80 945 -17.8499 64.5999 TC 112 12 234
1996057S12074 1996 16 SI MM FLOSSY 1996-02-29 06:00:00 TS -18.2333 64.1000 80 945 reunion main 701 640 O____O______O_ jtwc_sh SH171996 -18.2000 64.1000 110 3 -18.3000 64.1000 4 80 945 5.00000 5.50000 -18.2000 64.1000 TC 110 12 235
1996057S12074 1996 16 SI MM FLOSSY 1996-02-29 09:00:00 TS -18.5524 63.5923 main 637 580 P____P______P_ SH171996 -18.4999 63.5922 107 3 -18.6574 63.5924 4 80 945 -18.4999 63.5922 TC 107 11 236
1996057S12074 1996 16 SI MM FLOSSY 1996-02-29 12:00:00 TS -18.8667 63.1000 80 945 reunion main 576 527 O____O______O_ jtwc_sh SH171996 -18.8000 63.1000 105 3 -19.0000 63.1000 4 80 945 5.50000 5.50000 -18.8000 63.1000 TC 105 11 235
1996057S12074 1996 16 SI MM FLOSSY 1996-02-29 15:00:00 TS -19.1948 62.6398 main 517 468 P____P______P_ SH171996 -19.1424 62.6349 102 3 -19.2998 62.6496 4 80 945 -19.1424 62.6349 TC 102 11 232
1996057S12074 1996 16 SI MM FLOSSY 1996-02-29 18:00:00 TS -19.5333 62.2000 80 945 reunion main 468 420 O____O______O_ jtwc_sh SH171996 -19.5000 62.2000 100 3 -19.6000 62.2000 4 80 945 5.00000 5.50000 -19.5000 62.2000 TC 100 11 231
1996057S12074 1996 16 SI MM FLOSSY 1996-02-29 21:00:00 TS -19.8783 61.7590 main 420 375 P____P______P_ SH171996 -19.8499 61.7923 100 3 -19.9350 61.6924 4 80 945 -19.8499 61.7923 TC 100 11 229
1996057S12074 1996 16 SI MM FLOSSY 1996-03-01 00:00:00 TS -20.2333 61.3333 80 945 reunion main 365 324 O____O______O_ jtwc_sh SH171996 -20.2000 61.4000 100 3 -20.3000 61.2000 4 80 945 4.50000 5.50000 -20.2000 61.4000 TC 100 11 227
1996057S12074 1996 16 SI MM FLOSSY 1996-03-01 03:00:00 TS -20.6050 60.9133 main 324 299 P____P______P_ SH171996 -20.5575 60.9850 100 3 -20.6999 60.7699 4 77 947 -20.5575 60.9850 TC 100 11 226
1996057S12074 1996 16 SI MM FLOSSY 1996-03-01 06:00:00 TS -20.9667 60.5333 75 950 reunion main 291 273 O____O______O_ jtwc_sh SH171996 -20.9000 60.6000 100 3 -21.1000 60.4000 4 75 950 4.00000 5.00000 -20.9000 60.6000 TC 100 9 224
1996057S12074 1996 16 SI MM FLOSSY 1996-03-01 09:00:00 TS -21.2882 60.2131 main 273 259 P____P______P_ SH171996 -21.1999 60.2847 97 3 -21.4649 60.0699 4 70 955 -21.1999 60.2847 TC 97 8 221
1996057S12074 1996 16 SI MM FLOSSY 1996-03-01 12:00:00 TS -21.6000 59.9333 65 960 reunion main 259 253 O____O______O_ jtwc_sh SH171996 -21.5000 60.0000 95 2 -21.8000 59.8000 4 65 960 4.00000 4.50000 -21.5000 60.0000 TC 95 8 219
1996057S12074 1996 16 SI MM FLOSSY 1996-03-01 15:00:00 TS -21.9434 59.6367 main 251 251 P____P______P_ SH171996 -21.8576 59.6702 92 2 -22.1150 59.5699 4 65 960 -21.8576 59.6702 TC 92 8 217
1996057S12074 1996 16 SI MM FLOSSY 1996-03-01 18:00:00 TS -22.2667 59.4000 65 960 reunion main 267 267 O____O______O_ jtwc_sh SH171996 -22.2000 59.4000 90 2 -22.4000 59.4000 4 65 960 4.50000 4.50000 -22.2000 59.4000 TC 90 7 210
1996057S12074 1996 16 SI MM FLOSSY 1996-03-01 21:00:00 TS -22.5316 59.2648 main 278 278 P____P______P_ SH171996 -22.4649 59.2623 87 2 -22.6650 59.2699 4 67 957 -22.4649 59.2623 TC 87 5 200
1996057S12074 1996 16 SI MM FLOSSY 1996-03-02 00:00:00 TS -22.7667 59.2000 70 955 reunion main 300 300 O____O______O_ jtwc_sh SH171996 -22.7000 59.2000 85 2 -22.9000 59.2000 4 70 955 5.00000 5.00000 -22.7000 59.2000 TC 85 5 193
1996057S12074 1996 16 SI MM FLOSSY 1996-03-02 03:00:00 TS -23.0000 59.1442 main 314 314 P____P______P_ SH171996 -22.9500 59.1275 80 1 -23.1000 59.1775 4 70 955 -22.9500 59.1275 TC 80 5 187
1996057S12074 1996 16 SI MM FLOSSY 1996-03-02 06:00:00 TS -23.2333 59.1333 70 955 reunion main 334 334 O____O______O_ jtwc_sh SH171996 -23.2000 59.1000 75 1 -23.3000 59.2000 4 70 955 4.50000 5.00000 -23.2000 59.1000 TC 75 5 177
1996057S12074 1996 16 SI MM FLOSSY 1996-03-02 09:00:00 TS -23.4758 59.1509 main 369 369 P____P______P_ SH171996 -23.4425 59.1126 70 1 -23.5425 59.2276 4 70 955 -23.4425 59.1126 TC 70 5 170
1996057S12074 1996 16 SI MM FLOSSY 1996-03-02 12:00:00 TS -23.7333 59.2333 70 955 reunion main 389 389 O____O______O_ jtwc_sh SH171996 -23.7000 59.2000 65 1 -23.8000 59.3000 4 70 955 4.00000 5.00000 -23.7000 59.2000 TC 65 6 158
1996057S12074 1996 16 SI MM FLOSSY 1996-03-02 15:00:00 TS -24.0091 59.3793 main 428 428 P____P______P_ SH171996 -23.9849 59.3551 62 0 -24.0575 59.4275 4 66 960 -23.9849 59.3551 TC 62 7 149
1996057S12074 1996 16 SI MM FLOSSY 1996-03-02 18:00:00 TS -24.3000 59.6000 62 965 reunion main 467 467 O____O______O_ jtwc_sh SH171996 -24.3000 59.6000 60 0 -24.3000 59.6000 3 62 965 4.00000 4.50000 -24.3000 59.6000 TC 60 7 143
1996057S12074 1996 16 SI MM FLOSSY 1996-03-02 21:00:00 TS -24.5899 59.8627 main 510 510 P____P______P_ SH171996 -24.6425 59.9200 57 0 -24.4847 59.7480 3 58 970 -24.6425 59.9200 TC 57 8 138
1996057S12074 1996 16 SI MM FLOSSY 1996-03-03 00:00:00 TS -24.9000 60.2000 55 975 reunion main 554 554 O____O______O_ jtwc_sh SH171996 -25.0000 60.3000 55 0 -24.7000 60.0000 3 55 975 4.00000 4.00000 -25.0000 60.3000 TC 55 9 135
1996057S12074 1996 16 SI MM FLOSSY 1996-03-03 03:00:00 TS -25.2525 60.6058 main 613 613 P____P______P_ SH171996 -25.3649 60.6851 52 0 -25.0276 60.4473 3 52 977 -25.3649 60.6851 TC 52 11 132
1996057S12074 1996 16 SI MM FLOSSY 1996-03-03 06:00:00 TS -25.6000 61.0667 50 980 reunion main 667 667 O____O______O_ jtwc_sh SH171996 -25.7000 61.1000 50 0 -25.4000 61.0000 3 50 980 3.50000 4.00000 -25.7000 61.1000 TC 50 11 127
1996057S12074 1996 16 SI MM FLOSSY 1996-03-03 09:00:00 TS -25.8933 61.5453 main 717 717 P____P______P_ SH171996 -25.9574 61.5429 47 0 -25.7650 61.5500 3 50 980 -25.9574 61.5429 TC 47 10 123
1996057S12074 1996 16 SI MM FLOSSY 1996-03-03 12:00:00 TS -26.1667 62.0333 50 980 reunion main 773 773 O____O______O_ jtwc_sh SH171996 -26.2000 62.0000 45 0 -26.1000 62.1000 3 50 980 3.50000 4.00000 -26.2000 62.0000 TC 45 10 123
1996057S12074 1996 16 SI MM FLOSSY 1996-03-03 15:00:00 TS -26.4448 62.4979 main 820 820 P____P______P_ SH171996 -26.4924 62.4501 42 0 -26.3496 62.5933 3 47 982 -26.4924 62.4501 TC 42 10 124
1996057S12074 1996 16 SI MM FLOSSY 1996-03-03 18:00:00 TS -26.7273 62.9727 45 985 reunion main 878 878 O____O______O_ jtwc_sh SH171996 -26.8000 62.9000 40 0 -26.6000 63.1000 3 45 985 3.50000 3.50000 -26.8000 62.9000 TC 40 11 123
1996057S12074 1996 16 SI MM FLOSSY 1996-03-03 21:00:00 TS -27.0286 63.4960 main 935 935 P____P______P_ SH171996 -27.0999 63.3502 37 0 -26.9203 63.7149 3 45 985 -27.1028 63.3496 TC 37 11 124
1996057S12074 1996 16 SI MM FLOSSY 1996-03-04 00:00:00 TS -27.3556 64.0222 45 985 reunion main 1001 1001 O____O______O_ jtwc_sh SH171996 -27.4000 63.8000 35 0 -27.3000 64.3000 3 45 985 3.50000 3.50000 -27.4000 63.8000 TC 35 11 128
1996057S12074 1996 16 SI MM FLOSSY 1996-03-04 03:00:00 TS -27.7286 64.5125 main 1059 1059 P____P________ SH171996 -27.6999 64.2577 35 0 -27.7573 64.7673 3 45 985 TC 11 133
1996057S12074 1996 16 SI MM FLOSSY 1996-03-04 06:00:00 TS -28.1143 64.9286 45 985 reunion main 1118 1118 O____O________ jtwc_sh SH171996 -28.0000 64.7000 35 0 -28.2000 65.1000 3 45 985 2.50000 3.50000 10 139
1996057S12074 1996 16 SI MM FLOSSY 1996-03-04 09:00:00 TS -28.4482 65.2187 main 1163 1163 P____P________ SH171996 -28.3002 65.1096 35 0 -28.5222 65.2732 3 42 986 8 146
1996057S12074 1996 16 SI MM FLOSSY 1996-03-04 12:00:00 TS -28.7600 65.4200 40 988 reunion main 1209 1209 O____O________ jtwc_sh SH171996 -28.6000 65.5000 35 0 -28.8000 65.4000 3 40 988 2.00000 3.50000 8 151
1996057S12074 1996 16 SI MM FLOSSY 1996-03-04 15:00:00 TS -29.1075 65.6350 main 1247 1247 _____P________ SH171996 -1 -29.1075 65.6350 3 37 990 8 147
1996057S12074 1996 16 SI MM FLOSSY 1996-03-04 18:00:00 TS -29.4000 65.9000 35 992 reunion main 1291 1291 _____O________ -1 -29.4000 65.9000 3 35 992 2.00000 3.00000 7 141
1996057S12074 1996 16 SI MM FLOSSY 1996-03-04 21:00:00 TS -29.6574 66.1502 main 1336 1336 _____P________ -1 -29.6574 66.1502 3 7 139
1996057S12074 1996 16 SI MM FLOSSY 1996-03-05 00:00:00 ET -29.9000 66.4000 reunion main 1365 1365 _____O________ -1 -29.9000 66.4000 5 9.90000 6 139
1996057S12074 1996 16 SI MM FLOSSY 1996-03-05 03:00:00 ET -30.1424 66.6353 main 1395 1395 _____P________ -1 -30.1424 66.6353 5 7 139
1996057S12074 1996 16 SI MM FLOSSY 1996-03-05 06:00:00 ET -30.4000 66.9000 reunion main 1439 1439 _____O________ -1 -30.4000 66.9000 5 9.90000 7 137
1996057S12074 1996 16 SI MM FLOSSY 1996-03-05 09:00:00 ET -30.6774 67.2204 main 1483 1483 _____P________ -1 -30.6774 67.2204 5 9 135
1996057S12074 1996 16 SI MM FLOSSY 1996-03-05 12:00:00 ET -31.0000 67.6000 reunion main 1533 1533 _____O________ -1 -31.0000 67.6000 5 9.90000 10 138
1996057S12074 1996 16 SI MM FLOSSY 1996-03-05 15:00:00 ET -31.4220 67.9973 main 1592 1592 _____P________ -1 -31.4220 67.9973 5 11 136
1996057S12074 1996 16 SI MM FLOSSY 1996-03-05 18:00:00 ET -31.8000 68.5000 reunion main 1657 1657 _____O________ -1 -31.8000 68.5000 5 9.90000 11 121
1996057S12074 1996 16 SI MM FLOSSY 1996-03-05 21:00:00 ET -32.0062 69.1552 main 1718 1718 _____P________ -1 -32.0062 69.1552 5 12 104
1996057S12074 1996 16 SI MM FLOSSY 1996-03-06 00:00:00 TS -32.1000 69.9000 reunion main 1773 _____O________ -1 -32.1000 69.9000 6 9.90000 13 98

About IBTrACS Database

This database is a web-friendly format of International Best Track Archive for Climate Stewardship (IBTrACS), a global best track data archive curated by NOAA dating back to 1842.

Updated: 2021-11-26